조회
AD:공항, STS:일기, VIS:시정(m), WD:풍향, WS:풍속(knot), TEMP:기온(℃)
TYPE AD STS VIS WD WS TEMP Original Message
METAR 인천 weather 10000 북북동 08 05 041900Z 03008KT CAVOK 05/M06 Q1017 NOSIG=
METAR 김포 weather 10000 북서 03 04 041900Z 32003KT CAVOK 04/M04 Q1017 NOSIG=
METAR 청주 weather 10000 동남동 03 07 041900Z 12003KT 9999 -RA NSC 07/01 Q1017 RMK CIG070 SLP177 8/020 9/070=
METAR 양양 weather 10000 북서 05 03 041900Z AUTO 31005KT 9999 NCD 03/M03 Q1018=
METAR 군산 weather 9000 북동 05 06 041900Z 05005KT 9000 -RA BR OVC040 06/04 A2998 RMK CIG040 SLP156 8/5// 9/8// WR//=
METAR 원주 weather 10000 북동 02 04 041900Z 05002KT CAVOK 04/M04 Q1017 RMK CIG110 SLP185 8/020 9/070=
METAR 김해 weather 8000 북북동 07 06 041900Z 03007KT 8000 -RA OVC030 06/04 Q1016 RMK CIG030 SLP171 8/7// 9/8//=
METAR 제주 weather 10000 23 12 041900Z 09023KT 9999 -RA BKN040 OVC070 12/09 Q1009 NOSIG=
METAR 대구 weather 8000 북북동 01 06 041900Z 03001KT 8000 -RA SCT020 OVC030 06/04 Q1018 RMK CIG030 SLP186 8/7// 9/8// WR//=
METAR 광주 weather 10000 북북동 09 06 041900Z 03009KT 9999 -RA SCT030 OVC050 06/05 Q1014 RMK CIG050 SLP149 8/7// 9/8//=
METAR 여수 weather 8000 동북동 11 07 041900Z AUTO 07011KT 020V100 8000 ///016/// 07/05 Q1015=
METAR 울산 weather 7000 북북서 04 06 041900Z AUTO 34004KT 7000 RA ///032/// 06/06 Q1018=
METAR 포항 weather 8000 남남동 02 07 041800Z 15002KT 8000 -RA SCT020 OVC030 07/06 Q1019 RMK CIG030 SLP192 60006 8/5// 9/8//=
METAR 사천 weather 4000 북북동 06 06 041900Z 03006KT 4000 -RA BR SCT010 OVC020 06/05 Q1016 RMK CIG020 SLP170 8/7// 9/8//=
METAR 무안 weather 8000 북동 10 07 041900Z AUTO 05010KT 8000 RA NCD 07/03 Q1014=
주. 군공항제외